sensor_id;sensor_type;location;lat;lon;timestamp;P1;durP1;ratioP1;P2;durP2;ratioP2
33902;SDS011;20194;50.950;5.346;2022-12-29T00:01:52;1.98;;;1.30;;
33902;SDS011;20194;50.950;5.346;2022-12-29T00:04:18;1.55;;;1.00;;
33902;SDS011;20194;50.950;5.346;2022-12-29T00:06:44;4.93;;;1.13;;
33902;SDS011;20194;50.950;5.346;2022-12-29T00:09:11;1.25;;;1.15;;
33902;SDS011;20194;50.950;5.346;2022-12-29T00:11:37;2.00;;;1.15;;
33902;SDS011;20194;50.950;5.346;2022-12-29T00:14:03;1.42;;;0.90;;
33902;SDS011;20194;50.950;5.346;2022-12-29T00:16:47;3.65;;;1.10;;
33902;SDS011;20194;50.950;5.346;2022-12-29T00:19:13;2.17;;;1.00;;
33902;SDS011;20194;50.950;5.346;2022-12-29T00:24:42;1.42;;;0.63;;
33902;SDS011;20194;50.950;5.346;2022-12-29T00:27:28;2.40;;;0.90;;
33902;SDS011;20194;50.950;5.346;2022-12-29T00:30:15;1.27;;;0.70;;
33902;SDS011;20194;50.950;5.346;2022-12-29T00:33:04;1.95;;;0.88;;
33902;SDS011;20194;50.950;5.346;2022-12-29T00:38:42;2.38;;;0.77;;
33902;SDS011;20194;50.950;5.346;2022-12-29T00:41:30;0.40;;;0.40;;
33902;SDS011;20194;50.950;5.346;2022-12-29T00:46:40;1.25;;;0.70;;
33902;SDS011;20194;50.950;5.346;2022-12-29T00:49:08;1.00;;;0.60;;
33902;SDS011;20194;50.950;5.346;2022-12-29T00:51:54;2.58;;;1.08;;
33902;SDS011;20194;50.950;5.346;2022-12-29T00:54:21;0.50;;;0.50;;
33902;SDS011;20194;50.950;5.346;2022-12-29T00:56:47;2.08;;;0.75;;
33902;SDS011;20194;50.950;5.346;2022-12-29T00:59:14;0.73;;;0.63;;
33902;SDS011;20194;50.950;5.346;2022-12-29T01:01:40;3.50;;;0.90;;
33902;SDS011;20194;50.950;5.346;2022-12-29T01:04:06;0.95;;;0.63;;
33902;SDS011;20194;50.950;5.346;2022-12-29T01:06:33;5.40;;;1.08;;
33902;SDS011;20194;50.950;5.346;2022-12-29T01:09:00;2.95;;;1.05;;
33902;SDS011;20194;50.950;5.346;2022-12-29T01:11:44;1.58;;;0.73;;
33902;SDS011;20194;50.950;5.346;2022-12-29T01:14:10;2.00;;;0.60;;
33902;SDS011;20194;50.950;5.346;2022-12-29T01:16:36;0.60;;;0.60;;
33902;SDS011;20194;50.950;5.346;2022-12-29T01:19:02;2.25;;;0.73;;
33902;SDS011;20194;50.950;5.346;2022-12-29T01:21:28;0.90;;;0.68;;
33902;SDS011;20194;50.950;5.346;2022-12-29T01:23:54;2.97;;;0.75;;
33902;SDS011;20194;50.950;5.346;2022-12-29T01:26:19;4.28;;;0.70;;
33902;SDS011;20194;50.950;5.346;2022-12-29T01:28:45;2.83;;;0.70;;
33902;SDS011;20194;50.950;5.346;2022-12-29T01:31:12;1.98;;;0.95;;
33902;SDS011;20194;50.950;5.346;2022-12-29T01:33:40;5.10;;;0.98;;
33902;SDS011;20194;50.950;5.346;2022-12-29T01:36:08;1.10;;;0.70;;
33902;SDS011;20194;50.950;5.346;2022-12-29T01:38:35;2.35;;;0.55;;
33902;SDS011;20194;50.950;5.346;2022-12-29T01:41:03;2.25;;;0.85;;
33902;SDS011;20194;50.950;5.346;2022-12-29T01:43:48;4.15;;;1.02;;
33902;SDS011;20194;50.950;5.346;2022-12-29T01:46:20;4.60;;;1.02;;
33902;SDS011;20194;50.950;5.346;2022-12-29T01:51:39;4.90;;;0.52;;
33902;SDS011;20194;50.950;5.346;2022-12-29T01:54:10;1.55;;;1.00;;
33902;SDS011;20194;50.950;5.346;2022-12-29T01:56:39;1.42;;;0.80;;
33902;SDS011;20194;50.950;5.346;2022-12-29T01:59:06;5.93;;;0.95;;
33902;SDS011;20194;50.950;5.346;2022-12-29T02:01:38;1.87;;;0.87;;
33902;SDS011;20194;50.950;5.346;2022-12-29T02:04:03;6.65;;;0.93;;
33902;SDS011;20194;50.950;5.346;2022-12-29T02:06:43;0.60;;;0.35;;
33902;SDS011;20194;50.950;5.346;2022-12-29T02:09:14;1.23;;;0.80;;
33902;SDS011;20194;50.950;5.346;2022-12-29T02:11:41;4.40;;;1.02;;
33902;SDS011;20194;50.950;5.346;2022-12-29T02:14:10;4.03;;;1.48;;
33902;SDS011;20194;50.950;5.346;2022-12-29T02:16:44;3.67;;;1.40;;
33902;SDS011;20194;50.950;5.346;2022-12-29T02:43:50;1.13;;;0.70;;
33902;SDS011;20194;50.950;5.346;2022-12-29T02:47:08;6.55;;;0.90;;
33902;SDS011;20194;50.950;5.346;2022-12-29T02:51:52;0.63;;;0.63;;
33902;SDS011;20194;50.950;5.346;2022-12-29T02:54:23;2.25;;;0.63;;
33902;SDS011;20194;50.950;5.346;2022-12-29T03:00:08;2.63;;;0.73;;
33902;SDS011;20194;50.950;5.346;2022-12-29T03:06:05;0.47;;;0.47;;
33902;SDS011;20194;50.950;5.346;2022-12-29T03:08:31;1.05;;;0.60;;
33902;SDS011;20194;50.950;5.346;2022-12-29T03:11:05;1.67;;;0.50;;
33902;SDS011;20194;50.950;5.346;2022-12-29T03:17:01;2.15;;;0.40;;
33902;SDS011;20194;50.950;5.346;2022-12-29T03:19:35;2.58;;;0.50;;
33902;SDS011;20194;50.950;5.346;2022-12-29T03:22:05;1.73;;;0.88;;
33902;SDS011;20194;50.950;5.346;2022-12-29T03:24:53;0.95;;;0.45;;
33902;SDS011;20194;50.950;5.346;2022-12-29T03:27:24;2.05;;;0.52;;
33902;SDS011;20194;50.950;5.346;2022-12-29T03:29:55;3.30;;;1.27;;
33902;SDS011;20194;50.950;5.346;2022-12-29T03:32:28;3.25;;;0.70;;
33902;SDS011;20194;50.950;5.346;2022-12-29T03:34:58;0.73;;;0.38;;
33902;SDS011;20194;50.950;5.346;2022-12-29T03:37:26;4.03;;;0.80;;
33902;SDS011;20194;50.950;5.346;2022-12-29T03:40:00;2.00;;;0.60;;
33902;SDS011;20194;50.950;5.346;2022-12-29T03:42:27;0.68;;;0.40;;
33902;SDS011;20194;50.950;5.346;2022-12-29T03:44:56;2.35;;;0.60;;
33902;SDS011;20194;50.950;5.346;2022-12-29T03:47:22;2.95;;;0.70;;
33902;SDS011;20194;50.950;5.346;2022-12-29T03:49:50;0.93;;;0.70;;
33902;SDS011;20194;50.950;5.346;2022-12-29T03:52:16;4.75;;;0.60;;
33902;SDS011;20194;50.950;5.346;2022-12-29T03:54:42;0.77;;;0.40;;
33902;SDS011;20194;50.950;5.346;2022-12-29T03:57:08;2.63;;;0.47;;
33902;SDS011;20194;50.950;5.346;2022-12-29T03:59:35;1.48;;;0.70;;
33902;SDS011;20194;50.950;5.346;2022-12-29T04:02:00;2.38;;;0.80;;
33902;SDS011;20194;50.950;5.346;2022-12-29T04:04:26;1.75;;;0.65;;
33902;SDS011;20194;50.950;5.346;2022-12-29T04:06:52;3.90;;;0.90;;
33902;SDS011;20194;50.950;5.346;2022-12-29T04:09:17;1.58;;;0.65;;
33902;SDS011;20194;50.950;5.346;2022-12-29T04:11:44;4.03;;;0.70;;
33902;SDS011;20194;50.950;5.346;2022-12-29T04:14:10;1.40;;;0.77;;
33902;SDS011;20194;50.950;5.346;2022-12-29T04:16:35;1.08;;;0.50;;
33902;SDS011;20194;50.950;5.346;2022-12-29T04:19:03;3.28;;;0.93;;
33902;SDS011;20194;50.950;5.346;2022-12-29T04:21:30;2.10;;;0.73;;
33902;SDS011;20194;50.950;5.346;2022-12-29T04:23:55;1.20;;;0.50;;
33902;SDS011;20194;50.950;5.346;2022-12-29T04:26:21;2.85;;;0.55;;
33902;SDS011;20194;50.950;5.346;2022-12-29T04:28:47;1.38;;;0.73;;
33902;SDS011;20194;50.950;5.346;2022-12-29T04:31:13;3.30;;;0.65;;
33902;SDS011;20194;50.950;5.346;2022-12-29T04:33:39;3.45;;;0.80;;
33902;SDS011;20194;50.950;5.346;2022-12-29T04:36:05;0.50;;;0.40;;
33902;SDS011;20194;50.950;5.346;2022-12-29T04:38:30;0.88;;;0.40;;
33902;SDS011;20194;50.950;5.346;2022-12-29T04:40:58;1.63;;;0.43;;
33902;SDS011;20194;50.950;5.346;2022-12-29T04:43:25;2.42;;;0.85;;
33902;SDS011;20194;50.950;5.346;2022-12-29T04:45:51;2.72;;;0.75;;
33902;SDS011;20194;50.950;5.346;2022-12-29T04:48:17;3.92;;;0.50;;
33902;SDS011;20194;50.950;5.346;2022-12-29T04:50:42;6.22;;;0.93;;
33902;SDS011;20194;50.950;5.346;2022-12-29T04:53:09;4.57;;;0.82;;
33902;SDS011;20194;50.950;5.346;2022-12-29T04:55:35;5.90;;;0.63;;
33902;SDS011;20194;50.950;5.346;2022-12-29T04:58:01;3.15;;;0.57;;
33902;SDS011;20194;50.950;5.346;2022-12-29T05:00:27;4.18;;;0.60;;
33902;SDS011;20194;50.950;5.346;2022-12-29T05:02:52;4.25;;;0.70;;
33902;SDS011;20194;50.950;5.346;2022-12-29T05:05:18;2.08;;;0.65;;
33902;SDS011;20194;50.950;5.346;2022-12-29T05:07:44;5.15;;;0.77;;
33902;SDS011;20194;50.950;5.346;2022-12-29T05:10:10;3.00;;;0.73;;
33902;SDS011;20194;50.950;5.346;2022-12-29T05:12:36;3.78;;;0.60;;
33902;SDS011;20194;50.950;5.346;2022-12-29T05:15:03;6.15;;;1.00;;
33902;SDS011;20194;50.950;5.346;2022-12-29T05:17:31;3.30;;;0.77;;
33902;SDS011;20194;50.950;5.346;2022-12-29T05:19:57;1.83;;;0.68;;
33902;SDS011;20194;50.950;5.346;2022-12-29T05:22:23;2.80;;;0.73;;
33902;SDS011;20194;50.950;5.346;2022-12-29T05:24:48;3.83;;;0.82;;
33902;SDS011;20194;50.950;5.346;2022-12-29T05:27:14;2.25;;;0.98;;
33902;SDS011;20194;50.950;5.346;2022-12-29T05:29:40;1.80;;;0.30;;
33902;SDS011;20194;50.950;5.346;2022-12-29T05:32:06;2.75;;;0.60;;
33902;SDS011;20194;50.950;5.346;2022-12-29T05:34:31;5.63;;;0.80;;
33902;SDS011;20194;50.950;5.346;2022-12-29T05:36:57;2.15;;;0.68;;
33902;SDS011;20194;50.950;5.346;2022-12-29T05:39:23;4.65;;;0.60;;
33902;SDS011;20194;50.950;5.346;2022-12-29T05:41:48;3.78;;;0.88;;
33902;SDS011;20194;50.950;5.346;2022-12-29T05:44:14;6.03;;;0.90;;
33902;SDS011;20194;50.950;5.346;2022-12-29T05:46:40;8.07;;;2.03;;
33902;SDS011;20194;50.950;5.346;2022-12-29T05:49:06;4.03;;;0.82;;
33902;SDS011;20194;50.950;5.346;2022-12-29T05:51:32;4.20;;;1.30;;
33902;SDS011;20194;50.950;5.346;2022-12-29T05:53:57;4.40;;;0.60;;
33902;SDS011;20194;50.950;5.346;2022-12-29T05:56:23;5.57;;;0.90;;
33902;SDS011;20194;50.950;5.346;2022-12-29T05:58:49;10.07;;;1.30;;
33902;SDS011;20194;50.950;5.346;2022-12-29T06:01:14;2.92;;;1.02;;
33902;SDS011;20194;50.950;5.346;2022-12-29T06:03:40;4.28;;;0.77;;
33902;SDS011;20194;50.950;5.346;2022-12-29T06:06:06;8.10;;;1.63;;
33902;SDS011;20194;50.950;5.346;2022-12-29T06:08:32;7.35;;;1.30;;
33902;SDS011;20194;50.950;5.346;2022-12-29T06:10:58;5.57;;;1.10;;
33902;SDS011;20194;50.950;5.346;2022-12-29T06:13:24;1.92;;;0.63;;
33902;SDS011;20194;50.950;5.346;2022-12-29T06:15:50;9.10;;;1.05;;
33902;SDS011;20194;50.950;5.346;2022-12-29T06:18:16;3.90;;;0.65;;
33902;SDS011;20194;50.950;5.346;2022-12-29T06:20:42;9.13;;;1.20;;
33902;SDS011;20194;50.950;5.346;2022-12-29T06:23:07;7.55;;;1.25;;
33902;SDS011;20194;50.950;5.346;2022-12-29T06:25:33;15.43;;;1.58;;
33902;SDS011;20194;50.950;5.346;2022-12-29T06:28:00;7.50;;;0.77;;
33902;SDS011;20194;50.950;5.346;2022-12-29T06:30:27;7.63;;;1.65;;
33902;SDS011;20194;50.950;5.346;2022-12-29T06:32:53;6.78;;;1.17;;
33902;SDS011;20194;50.950;5.346;2022-12-29T06:35:19;8.13;;;1.85;;
33902;SDS011;20194;50.950;5.346;2022-12-29T06:37:47;6.80;;;1.38;;
33902;SDS011;20194;50.950;5.346;2022-12-29T06:40:13;7.32;;;0.90;;
33902;SDS011;20194;50.950;5.346;2022-12-29T06:42:38;5.43;;;1.58;;
33902;SDS011;20194;50.950;5.346;2022-12-29T06:45:04;5.22;;;1.00;;
33902;SDS011;20194;50.950;5.346;2022-12-29T06:47:30;5.78;;;1.00;;
33902;SDS011;20194;50.950;5.346;2022-12-29T06:49:56;8.60;;;1.27;;
33902;SDS011;20194;50.950;5.346;2022-12-29T06:52:22;4.97;;;1.10;;
33902;SDS011;20194;50.950;5.346;2022-12-29T06:54:49;6.57;;;1.20;;
33902;SDS011;20194;50.950;5.346;2022-12-29T06:57:15;6.22;;;1.20;;
33902;SDS011;20194;50.950;5.346;2022-12-29T06:59:40;8.98;;;1.35;;
33902;SDS011;20194;50.950;5.346;2022-12-29T07:02:06;5.03;;;1.20;;
33902;SDS011;20194;50.950;5.346;2022-12-29T07:04:32;9.95;;;2.10;;
33902;SDS011;20194;50.950;5.346;2022-12-29T07:06:58;7.75;;;1.13;;
33902;SDS011;20194;50.950;5.346;2022-12-29T07:09:24;9.77;;;1.42;;
33902;SDS011;20194;50.950;5.346;2022-12-29T07:11:50;7.78;;;1.60;;
33902;SDS011;20194;50.950;5.346;2022-12-29T07:14:15;8.82;;;1.48;;
33902;SDS011;20194;50.950;5.346;2022-12-29T07:16:41;9.40;;;1.30;;
33902;SDS011;20194;50.950;5.346;2022-12-29T07:19:06;2.25;;;0.98;;
33902;SDS011;20194;50.950;5.346;2022-12-29T07:21:32;10.00;;;1.08;;
33902;SDS011;20194;50.950;5.346;2022-12-29T07:23:58;9.43;;;1.15;;
33902;SDS011;20194;50.950;5.346;2022-12-29T07:26:23;7.60;;;1.10;;
33902;SDS011;20194;50.950;5.346;2022-12-29T07:28:49;3.03;;;0.95;;
33902;SDS011;20194;50.950;5.346;2022-12-29T07:31:16;10.00;;;1.38;;
33902;SDS011;20194;50.950;5.346;2022-12-29T07:33:43;2.83;;;0.77;;
33902;SDS011;20194;50.950;5.346;2022-12-29T07:36:10;6.15;;;1.40;;
33902;SDS011;20194;50.950;5.346;2022-12-29T07:38:37;6.93;;;1.27;;
33902;SDS011;20194;50.950;5.346;2022-12-29T07:41:03;14.07;;;1.73;;
33902;SDS011;20194;50.950;5.346;2022-12-29T07:43:29;6.55;;;1.27;;
33902;SDS011;20194;50.950;5.346;2022-12-29T07:45:55;7.97;;;1.48;;
33902;SDS011;20194;50.950;5.346;2022-12-29T07:48:21;9.55;;;1.42;;
33902;SDS011;20194;50.950;5.346;2022-12-29T07:50:47;8.50;;;2.15;;
33902;SDS011;20194;50.950;5.346;2022-12-29T07:53:13;11.15;;;1.27;;
33902;SDS011;20194;50.950;5.346;2022-12-29T07:55:39;12.35;;;1.90;;
33902;SDS011;20194;50.950;5.346;2022-12-29T07:58:05;8.38;;;1.45;;
33902;SDS011;20194;50.950;5.346;2022-12-29T08:00:31;8.73;;;1.40;;
33902;SDS011;20194;50.950;5.346;2022-12-29T08:02:57;15.70;;;1.80;;
33902;SDS011;20194;50.950;5.346;2022-12-29T08:05:22;11.43;;;2.03;;
33902;SDS011;20194;50.950;5.346;2022-12-29T08:07:48;10.57;;;1.65;;
33902;SDS011;20194;50.950;5.346;2022-12-29T08:10:14;8.52;;;1.60;;
33902;SDS011;20194;50.950;5.346;2022-12-29T08:12:41;7.53;;;1.20;;
33902;SDS011;20194;50.950;5.346;2022-12-29T08:15:08;6.60;;;1.20;;
33902;SDS011;20194;50.950;5.346;2022-12-29T08:17:36;14.43;;;1.75;;
33902;SDS011;20194;50.950;5.346;2022-12-29T08:20:02;16.88;;;1.50;;
33902;SDS011;20194;50.950;5.346;2022-12-29T08:22:29;10.32;;;1.90;;
33902;SDS011;20194;50.950;5.346;2022-12-29T08:24:54;7.90;;;1.60;;
33902;SDS011;20194;50.950;5.346;2022-12-29T08:27:20;3.55;;;1.40;;
33902;SDS011;20194;50.950;5.346;2022-12-29T08:29:47;6.43;;;1.40;;
33902;SDS011;20194;50.950;5.346;2022-12-29T08:32:13;10.20;;;1.50;;
33902;SDS011;20194;50.950;5.346;2022-12-29T08:34:39;8.38;;;1.55;;
33902;SDS011;20194;50.950;5.346;2022-12-29T08:37:05;7.72;;;1.10;;
33902;SDS011;20194;50.950;5.346;2022-12-29T08:39:30;8.38;;;1.40;;
33902;SDS011;20194;50.950;5.346;2022-12-29T08:41:56;11.48;;;1.52;;
33902;SDS011;20194;50.950;5.346;2022-12-29T08:44:22;11.07;;;1.35;;
33902;SDS011;20194;50.950;5.346;2022-12-29T08:46:48;4.50;;;0.47;;
33902;SDS011;20194;50.950;5.346;2022-12-29T08:49:13;10.82;;;1.70;;
33902;SDS011;20194;50.950;5.346;2022-12-29T08:51:39;9.82;;;1.42;;
33902;SDS011;20194;50.950;5.346;2022-12-29T08:54:05;9.15;;;1.27;;
33902;SDS011;20194;50.950;5.346;2022-12-29T08:56:31;17.02;;;2.13;;
33902;SDS011;20194;50.950;5.346;2022-12-29T08:58:56;11.50;;;1.27;;
33902;SDS011;20194;50.950;5.346;2022-12-29T09:01:22;10.80;;;1.88;;
33902;SDS011;20194;50.950;5.346;2022-12-29T09:03:48;8.10;;;1.55;;
33902;SDS011;20194;50.950;5.346;2022-12-29T09:06:14;9.43;;;1.73;;
33902;SDS011;20194;50.950;5.346;2022-12-29T09:08:42;8.38;;;1.55;;
33902;SDS011;20194;50.950;5.346;2022-12-29T09:13:38;6.90;;;2.03;;
33902;SDS011;20194;50.950;5.346;2022-12-29T09:16:04;8.98;;;1.42;;
33902;SDS011;20194;50.950;5.346;2022-12-29T09:18:30;7.07;;;1.48;;
33902;SDS011;20194;50.950;5.346;2022-12-29T09:21:00;5.28;;;1.42;;
33902;SDS011;20194;50.950;5.346;2022-12-29T09:23:27;14.07;;;2.58;;
33902;SDS011;20194;50.950;5.346;2022-12-29T09:25:54;11.05;;;1.60;;
33902;SDS011;20194;50.950;5.346;2022-12-29T09:28:20;7.38;;;1.00;;
33902;SDS011;20194;50.950;5.346;2022-12-29T09:30:46;15.30;;;1.30;;
33902;SDS011;20194;50.950;5.346;2022-12-29T09:33:12;10.07;;;1.52;;
33902;SDS011;20194;50.950;5.346;2022-12-29T09:35:44;7.05;;;1.05;;
33902;SDS011;20194;50.950;5.346;2022-12-29T09:38:14;10.70;;;1.27;;
33902;SDS011;20194;50.950;5.346;2022-12-29T09:40:40;8.82;;;1.60;;
33902;SDS011;20194;50.950;5.346;2022-12-29T09:48:40;6.15;;;1.27;;
33902;SDS011;20194;50.950;5.346;2022-12-29T09:51:10;11.45;;;2.05;;
33902;SDS011;20194;50.950;5.346;2022-12-29T09:53:44;14.07;;;1.60;;
33902;SDS011;20194;50.950;5.346;2022-12-29T09:56:15;13.52;;;1.67;;
33902;SDS011;20194;50.950;5.346;2022-12-29T10:03:58;10.02;;;1.30;;
33902;SDS011;20194;50.950;5.346;2022-12-29T10:09:17;14.63;;;2.05;;
33902;SDS011;20194;50.950;5.346;2022-12-29T10:12:12;17.25;;;2.15;;
33902;SDS011;20194;50.950;5.346;2022-12-29T10:25:28;7.28;;;1.23;;
33902;SDS011;20194;50.950;5.346;2022-12-29T10:27:58;18.13;;;2.53;;
33902;SDS011;20194;50.950;5.346;2022-12-29T10:30:27;15.05;;;2.42;;
33902;SDS011;20194;50.950;5.346;2022-12-29T10:32:58;6.82;;;1.40;;
33902;SDS011;20194;50.950;5.346;2022-12-29T10:35:29;13.17;;;2.20;;
33902;SDS011;20194;50.950;5.346;2022-12-29T10:43:46;27.20;;;2.22;;
33902;SDS011;20194;50.950;5.346;2022-12-29T10:46:18;10.23;;;1.63;;
33902;SDS011;20194;50.950;5.346;2022-12-29T10:48:46;15.93;;;2.03;;
33902;SDS011;20194;50.950;5.346;2022-12-29T10:51:22;9.55;;;1.75;;
33902;SDS011;20194;50.950;5.346;2022-12-29T10:53:53;8.93;;;2.30;;
33902;SDS011;20194;50.950;5.346;2022-12-29T10:56:31;15.63;;;3.08;;
33902;SDS011;20194;50.950;5.346;2022-12-29T10:59:14;12.60;;;1.80;;
33902;SDS011;20194;50.950;5.346;2022-12-29T11:07:16;14.95;;;1.80;;
33902;SDS011;20194;50.950;5.346;2022-12-29T11:09:44;10.25;;;1.95;;
33902;SDS011;20194;50.950;5.346;2022-12-29T11:12:27;10.68;;;2.08;;
33902;SDS011;20194;50.950;5.346;2022-12-29T11:17:45;12.98;;;1.67;;
33902;SDS011;20194;50.950;5.346;2022-12-29T11:23:02;15.63;;;2.47;;
33902;SDS011;20194;50.950;5.346;2022-12-29T11:25:30;11.40;;;1.33;;
33902;SDS011;20194;50.950;5.346;2022-12-29T11:28:04;16.92;;;2.00;;
33902;SDS011;20194;50.950;5.346;2022-12-29T11:30:40;8.15;;;1.63;;
33902;SDS011;20194;50.950;5.346;2022-12-29T11:33:07;9.00;;;1.23;;
33902;SDS011;20194;50.950;5.346;2022-12-29T11:35:39;12.23;;;1.70;;
33902;SDS011;20194;50.950;5.346;2022-12-29T11:38:16;3.85;;;1.10;;
33902;SDS011;20194;50.950;5.346;2022-12-29T11:40:50;9.93;;;1.83;;
33902;SDS011;20194;50.950;5.346;2022-12-29T11:43:22;6.63;;;1.13;;
33902;SDS011;20194;50.950;5.346;2022-12-29T11:45:58;14.23;;;2.35;;
33902;SDS011;20194;50.950;5.346;2022-12-29T11:48:26;15.07;;;2.17;;
33902;SDS011;20194;50.950;5.346;2022-12-29T11:50:57;12.90;;;1.95;;
33902;SDS011;20194;50.950;5.346;2022-12-29T11:53:27;7.70;;;1.67;;
33902;SDS011;20194;50.950;5.346;2022-12-29T11:56:04;19.33;;;2.15;;
33902;SDS011;20194;50.950;5.346;2022-12-29T11:58:36;13.80;;;2.50;;
33902;SDS011;20194;50.950;5.346;2022-12-29T12:03:48;8.98;;;1.20;;
33902;SDS011;20194;50.950;5.346;2022-12-29T12:06:24;8.55;;;1.88;;
33902;SDS011;20194;50.950;5.346;2022-12-29T12:08:55;15.93;;;1.60;;
33902;SDS011;20194;50.950;5.346;2022-12-29T12:11:29;11.48;;;1.95;;
33902;SDS011;20194;50.950;5.346;2022-12-29T12:16:39;8.60;;;1.63;;
33902;SDS011;20194;50.950;5.346;2022-12-29T12:19:16;16.75;;;1.75;;
33902;SDS011;20194;50.950;5.346;2022-12-29T12:21:59;13.98;;;2.38;;
33902;SDS011;20194;50.950;5.346;2022-12-29T12:27:36;8.75;;;1.10;;
33902;SDS011;20194;50.950;5.346;2022-12-29T12:30:17;7.72;;;1.50;;
33902;SDS011;20194;50.950;5.346;2022-12-29T12:43:43;4.47;;;1.20;;
33902;SDS011;20194;50.950;5.346;2022-12-29T12:52:09;6.82;;;1.10;;
33902;SDS011;20194;50.950;5.346;2022-12-29T13:00:16;9.38;;;1.58;;
33902;SDS011;20194;50.950;5.346;2022-12-29T13:19:04;13.10;;;1.98;;
33902;SDS011;20194;50.950;5.346;2022-12-29T13:21:37;19.08;;;1.83;;
33902;SDS011;20194;50.950;5.346;2022-12-29T13:30:12;10.93;;;1.80;;
33902;SDS011;20194;50.950;5.346;2022-12-29T13:38:32;9.05;;;2.08;;
33902;SDS011;20194;50.950;5.346;2022-12-29T13:40:44;8.18;;;1.52;;
33902;SDS011;20194;50.950;5.346;2022-12-29T13:43:12;11.18;;;1.67;;
33902;SDS011;20194;50.950;5.346;2022-12-29T13:45:39;6.60;;;1.40;;
33902;SDS011;20194;50.950;5.346;2022-12-29T13:48:09;6.25;;;1.30;;
33902;SDS011;20194;50.950;5.346;2022-12-29T13:50:42;12.05;;;1.80;;
33902;SDS011;20194;50.950;5.346;2022-12-29T13:58:56;5.70;;;1.08;;
33902;SDS011;20194;50.950;5.346;2022-12-29T14:01:27;5.72;;;1.40;;
33902;SDS011;20194;50.950;5.346;2022-12-29T14:04:09;10.20;;;1.52;;
33902;SDS011;20194;50.950;5.346;2022-12-29T14:06:45;7.00;;;1.00;;
33902;SDS011;20194;50.950;5.346;2022-12-29T14:09:41;12.55;;;1.50;;
33902;SDS011;20194;50.950;5.346;2022-12-29T14:17:30;14.23;;;2.28;;
33902;SDS011;20194;50.950;5.346;2022-12-29T14:19:55;9.93;;;1.45;;
33902;SDS011;20194;50.950;5.346;2022-12-29T14:22:25;13.25;;;3.13;;
33902;SDS011;20194;50.950;5.346;2022-12-29T14:24:52;14.27;;;2.28;;
33902;SDS011;20194;50.950;5.346;2022-12-29T14:29:44;9.45;;;2.20;;
33902;SDS011;20194;50.950;5.346;2022-12-29T14:34:57;11.57;;;1.70;;
33902;SDS011;20194;50.950;5.346;2022-12-29T14:37:31;14.70;;;2.30;;
33902;SDS011;20194;50.950;5.346;2022-12-29T14:40:02;16.55;;;2.47;;
33902;SDS011;20194;50.950;5.346;2022-12-29T14:42:40;12.80;;;1.98;;
33902;SDS011;20194;50.950;5.346;2022-12-29T14:45:19;17.23;;;2.75;;
33902;SDS011;20194;50.950;5.346;2022-12-29T14:48:02;12.63;;;2.15;;
33902;SDS011;20194;50.950;5.346;2022-12-29T14:50:49;15.00;;;2.63;;
33902;SDS011;20194;50.950;5.346;2022-12-29T14:56:08;25.35;;;3.35;;
33902;SDS011;20194;50.950;5.346;2022-12-29T14:58:39;12.23;;;2.35;;
33902;SDS011;20194;50.950;5.346;2022-12-29T15:04:15;17.05;;;2.55;;
33902;SDS011;20194;50.950;5.346;2022-12-29T15:06:55;17.27;;;2.40;;
33902;SDS011;20194;50.950;5.346;2022-12-29T15:09:25;15.93;;;1.95;;
33902;SDS011;20194;50.950;5.346;2022-12-29T15:12:22;20.38;;;1.80;;
33902;SDS011;20194;50.950;5.346;2022-12-29T15:15:00;12.70;;;2.97;;
33902;SDS011;20194;50.950;5.346;2022-12-29T15:17:31;13.90;;;2.33;;
33902;SDS011;20194;50.950;5.346;2022-12-29T15:19:59;18.98;;;2.63;;
33902;SDS011;20194;50.950;5.346;2022-12-29T15:22:41;14.25;;;2.58;;
33902;SDS011;20194;50.950;5.346;2022-12-29T15:25:12;19.00;;;2.78;;
33902;SDS011;20194;50.950;5.346;2022-12-29T15:27:42;13.90;;;2.63;;
33902;SDS011;20194;50.950;5.346;2022-12-29T15:30:13;16.33;;;2.30;;
33902;SDS011;20194;50.950;5.346;2022-12-29T15:32:40;22.52;;;2.83;;
33902;SDS011;20194;50.950;5.346;2022-12-29T15:35:21;9.60;;;1.60;;
33902;SDS011;20194;50.950;5.346;2022-12-29T15:37:51;14.10;;;2.23;;
33902;SDS011;20194;50.950;5.346;2022-12-29T15:40:24;11.80;;;1.80;;
33902;SDS011;20194;50.950;5.346;2022-12-29T15:45:26;8.27;;;1.48;;
33902;SDS011;20194;50.950;5.346;2022-12-29T15:47:57;12.55;;;1.88;;
33902;SDS011;20194;50.950;5.346;2022-12-29T15:52:49;6.15;;;1.70;;
33902;SDS011;20194;50.950;5.346;2022-12-29T15:55:19;16.05;;;1.70;;
33902;SDS011;20194;50.950;5.346;2022-12-29T15:57:56;9.63;;;1.70;;
33902;SDS011;20194;50.950;5.346;2022-12-29T16:00:27;12.23;;;1.50;;
33902;SDS011;20194;50.950;5.346;2022-12-29T16:02:55;15.82;;;2.22;;
33902;SDS011;20194;50.950;5.346;2022-12-29T16:05:24;15.55;;;3.05;;
33902;SDS011;20194;50.950;5.346;2022-12-29T16:08:00;20.30;;;2.40;;
33902;SDS011;20194;50.950;5.346;2022-12-29T16:15:52;13.57;;;2.30;;
33902;SDS011;20194;50.950;5.346;2022-12-29T16:18:29;13.93;;;1.92;;
33902;SDS011;20194;50.950;5.346;2022-12-29T16:21:00;16.65;;;2.13;;
33902;SDS011;20194;50.950;5.346;2022-12-29T16:23:27;21.48;;;3.30;;
33902;SDS011;20194;50.950;5.346;2022-12-29T16:25:55;16.17;;;2.13;;
33902;SDS011;20194;50.950;5.346;2022-12-29T16:28:44;11.13;;;2.30;;
33902;SDS011;20194;50.950;5.346;2022-12-29T16:31:17;7.15;;;1.98;;
33902;SDS011;20194;50.950;5.346;2022-12-29T16:33:57;10.23;;;2.33;;
33902;SDS011;20194;50.950;5.346;2022-12-29T16:38:51;13.98;;;2.28;;
33902;SDS011;20194;50.950;5.346;2022-12-29T16:41:48;9.65;;;2.10;;
33902;SDS011;20194;50.950;5.346;2022-12-29T16:44:25;7.60;;;1.30;;
33902;SDS011;20194;50.950;5.346;2022-12-29T16:49:24;13.48;;;2.65;;
33902;SDS011;20194;50.950;5.346;2022-12-29T16:51:51;13.77;;;2.20;;
33902;SDS011;20194;50.950;5.346;2022-12-29T16:54:28;8.43;;;2.25;;
33902;SDS011;20194;50.950;5.346;2022-12-29T16:56:58;11.35;;;2.20;;
33902;SDS011;20194;50.950;5.346;2022-12-29T16:59:30;12.05;;;1.83;;
33902;SDS011;20194;50.950;5.346;2022-12-29T17:02:14;13.10;;;2.15;;
33902;SDS011;20194;50.950;5.346;2022-12-29T17:04:44;21.10;;;2.45;;
33902;SDS011;20194;50.950;5.346;2022-12-29T17:07:16;10.70;;;2.17;;
33902;SDS011;20194;50.950;5.346;2022-12-29T17:09:44;10.32;;;1.60;;
33902;SDS011;20194;50.950;5.346;2022-12-29T17:12:10;20.45;;;2.22;;
33902;SDS011;20194;50.950;5.346;2022-12-29T17:14:47;12.35;;;1.77;;
33902;SDS011;20194;50.950;5.346;2022-12-29T17:17:23;13.48;;;2.60;;
33902;SDS011;20194;50.950;5.346;2022-12-29T17:19:59;14.80;;;2.22;;
33902;SDS011;20194;50.950;5.346;2022-12-29T17:22:30;10.18;;;1.92;;
33902;SDS011;20194;50.950;5.346;2022-12-29T17:24:57;17.25;;;2.53;;
33902;SDS011;20194;50.950;5.346;2022-12-29T17:27:27;16.77;;;2.60;;
33902;SDS011;20194;50.950;5.346;2022-12-29T17:30:03;13.90;;;2.22;;
33902;SDS011;20194;50.950;5.346;2022-12-29T17:32:42;11.00;;;2.13;;
33902;SDS011;20194;50.950;5.346;2022-12-29T17:35:16;15.40;;;2.15;;
33902;SDS011;20194;50.950;5.346;2022-12-29T17:37:44;15.40;;;2.17;;
33902;SDS011;20194;50.950;5.346;2022-12-29T17:40:14;14.23;;;2.03;;
33902;SDS011;20194;50.950;5.346;2022-12-29T17:42:45;9.55;;;2.05;;
33902;SDS011;20194;50.950;5.346;2022-12-29T17:45:17;9.95;;;1.50;;
33902;SDS011;20194;50.950;5.346;2022-12-29T17:47:47;16.52;;;2.38;;
33902;SDS011;20194;50.950;5.346;2022-12-29T17:50:14;11.73;;;2.72;;
33902;SDS011;20194;50.950;5.346;2022-12-29T17:52:41;13.65;;;1.88;;
33902;SDS011;20194;50.950;5.346;2022-12-29T17:55:17;13.20;;;2.47;;
33902;SDS011;20194;50.950;5.346;2022-12-29T17:57:45;13.68;;;2.13;;
33902;SDS011;20194;50.950;5.346;2022-12-29T18:00:18;4.90;;;1.38;;
33902;SDS011;20194;50.950;5.346;2022-12-29T18:02:51;13.23;;;1.80;;
33902;SDS011;20194;50.950;5.346;2022-12-29T18:07:52;16.08;;;1.98;;
33902;SDS011;20194;50.950;5.346;2022-12-29T18:10:20;13.68;;;1.38;;